sensor_id;sensor_type;location;lat;lon;timestamp;P1;durP1;ratioP1;P2;durP2;ratioP2
55706;SDS011;41608;45.384;20.394;2023-03-01T00:01:22;75.63;;;45.20;;
55706;SDS011;41608;45.384;20.394;2023-03-01T00:03:48;78.10;;;47.88;;
55706;SDS011;41608;45.384;20.394;2023-03-01T00:06:17;70.43;;;44.30;;
55706;SDS011;41608;45.384;20.394;2023-03-01T00:08:43;82.28;;;48.03;;
55706;SDS011;41608;45.384;20.394;2023-03-01T00:11:13;80.43;;;49.40;;
55706;SDS011;41608;45.384;20.394;2023-03-01T00:13:40;84.43;;;47.90;;
55706;SDS011;41608;45.384;20.394;2023-03-01T00:16:09;77.97;;;48.28;;
55706;SDS011;41608;45.384;20.394;2023-03-01T00:18:36;79.60;;;48.67;;
55706;SDS011;41608;45.384;20.394;2023-03-01T00:21:02;84.93;;;50.95;;
55706;SDS011;41608;45.384;20.394;2023-03-01T00:23:31;81.82;;;46.53;;
55706;SDS011;41608;45.384;20.394;2023-03-01T00:25:57;73.90;;;45.75;;
55706;SDS011;41608;45.384;20.394;2023-03-01T00:28:25;83.32;;;51.33;;
55706;SDS011;41608;45.384;20.394;2023-03-01T00:30:51;77.55;;;45.25;;
55706;SDS011;41608;45.384;20.394;2023-03-01T00:33:18;81.90;;;49.42;;
55706;SDS011;41608;45.384;20.394;2023-03-01T00:35:44;84.60;;;46.38;;
55706;SDS011;41608;45.384;20.394;2023-03-01T00:38:10;84.82;;;46.88;;
55706;SDS011;41608;45.384;20.394;2023-03-01T00:40:36;77.82;;;49.22;;
55706;SDS011;41608;45.384;20.394;2023-03-01T00:43:03;87.50;;;51.10;;
55706;SDS011;41608;45.384;20.394;2023-03-01T00:45:29;79.88;;;48.22;;
55706;SDS011;41608;45.384;20.394;2023-03-01T00:47:56;83.03;;;51.08;;
55706;SDS011;41608;45.384;20.394;2023-03-01T00:50:23;76.57;;;46.85;;
55706;SDS011;41608;45.384;20.394;2023-03-01T00:52:52;80.43;;;49.38;;
55706;SDS011;41608;45.384;20.394;2023-03-01T00:55:18;82.95;;;48.08;;
55706;SDS011;41608;45.384;20.394;2023-03-01T00:57:44;83.00;;;47.70;;
55706;SDS011;41608;45.384;20.394;2023-03-01T01:00:10;77.63;;;46.70;;
55706;SDS011;41608;45.384;20.394;2023-03-01T01:02:39;80.40;;;46.15;;
55706;SDS011;41608;45.384;20.394;2023-03-01T01:05:05;77.00;;;46.17;;
55706;SDS011;41608;45.384;20.394;2023-03-01T01:07:31;75.03;;;43.80;;
55706;SDS011;41608;45.384;20.394;2023-03-01T01:09:57;81.75;;;49.10;;
55706;SDS011;41608;45.384;20.394;2023-03-01T01:12:23;72.13;;;43.75;;
55706;SDS011;41608;45.384;20.394;2023-03-01T01:14:49;75.93;;;45.92;;
55706;SDS011;41608;45.384;20.394;2023-03-01T01:17:15;77.13;;;47.88;;
55706;SDS011;41608;45.384;20.394;2023-03-01T01:19:42;77.68;;;45.85;;
55706;SDS011;41608;45.384;20.394;2023-03-01T01:22:08;79.15;;;43.53;;
55706;SDS011;41608;45.384;20.394;2023-03-01T01:24:36;69.70;;;42.95;;
55706;SDS011;41608;45.384;20.394;2023-03-01T01:27:02;77.93;;;44.08;;
55706;SDS011;41608;45.384;20.394;2023-03-01T01:29:28;67.05;;;42.58;;
55706;SDS011;41608;45.384;20.394;2023-03-01T01:31:54;77.57;;;46.53;;
55706;SDS011;41608;45.384;20.394;2023-03-01T01:34:21;70.43;;;43.58;;
55706;SDS011;41608;45.384;20.394;2023-03-01T01:36:48;74.50;;;43.20;;
55706;SDS011;41608;45.384;20.394;2023-03-01T01:39:14;74.07;;;43.95;;
55706;SDS011;41608;45.384;20.394;2023-03-01T01:41:41;72.53;;;42.25;;
55706;SDS011;41608;45.384;20.394;2023-03-01T01:44:12;70.70;;;43.88;;
55706;SDS011;41608;45.384;20.394;2023-03-01T01:46:39;79.50;;;44.95;;
55706;SDS011;41608;45.384;20.394;2023-03-01T01:49:22;66.00;;;42.28;;
55706;SDS011;41608;45.384;20.394;2023-03-01T01:51:49;76.47;;;43.60;;
55706;SDS011;41608;45.384;20.394;2023-03-01T01:54:20;75.68;;;44.67;;
55706;SDS011;41608;45.384;20.394;2023-03-01T01:56:49;70.30;;;45.22;;
55706;SDS011;41608;45.384;20.394;2023-03-01T01:59:17;70.97;;;43.08;;
55706;SDS011;41608;45.384;20.394;2023-03-01T02:01:43;73.13;;;44.92;;
55706;SDS011;41608;45.384;20.394;2023-03-01T02:04:09;77.20;;;44.10;;
55706;SDS011;41608;45.384;20.394;2023-03-01T02:06:44;78.60;;;45.13;;
55706;SDS011;41608;45.384;20.394;2023-03-01T02:09:15;75.05;;;43.80;;
55706;SDS011;41608;45.384;20.394;2023-03-01T02:11:42;77.50;;;48.92;;
55706;SDS011;41608;45.384;20.394;2023-03-01T02:14:09;73.82;;;45.97;;
55706;SDS011;41608;45.384;20.394;2023-03-01T02:16:35;76.75;;;43.63;;
55706;SDS011;41608;45.384;20.394;2023-03-01T02:19:03;76.72;;;43.35;;
55706;SDS011;41608;45.384;20.394;2023-03-01T02:24:19;73.68;;;42.70;;
55706;SDS011;41608;45.384;20.394;2023-03-01T02:26:50;77.38;;;47.47;;
55706;SDS011;41608;45.384;20.394;2023-03-01T02:29:17;78.70;;;47.60;;
55706;SDS011;41608;45.384;20.394;2023-03-01T02:31:43;80.65;;;46.80;;
55706;SDS011;41608;45.384;20.394;2023-03-01T02:34:12;86.47;;;48.40;;
55706;SDS011;41608;45.384;20.394;2023-03-01T02:36:39;74.30;;;43.25;;
55706;SDS011;41608;45.384;20.394;2023-03-01T02:39:07;74.10;;;43.20;;
55706;SDS011;41608;45.384;20.394;2023-03-01T02:41:42;76.18;;;46.15;;
55706;SDS011;41608;45.384;20.394;2023-03-01T02:44:09;80.38;;;43.28;;
55706;SDS011;41608;45.384;20.394;2023-03-01T02:46:41;92.05;;;48.17;;
55706;SDS011;41608;45.384;20.394;2023-03-01T02:49:27;73.82;;;44.00;;
55706;SDS011;41608;45.384;20.394;2023-03-01T02:55:01;80.60;;;47.67;;
55706;SDS011;41608;45.384;20.394;2023-03-01T02:57:25;81.38;;;46.70;;
55706;SDS011;41608;45.384;20.394;2023-03-01T02:59:52;86.47;;;46.15;;
55706;SDS011;41608;45.384;20.394;2023-03-01T03:05:01;82.18;;;50.40;;
55706;SDS011;41608;45.384;20.394;2023-03-01T03:07:27;73.03;;;45.08;;
55706;SDS011;41608;45.384;20.394;2023-03-01T03:09:53;74.40;;;46.38;;
55706;SDS011;41608;45.384;20.394;2023-03-01T03:12:19;72.13;;;44.00;;
55706;SDS011;41608;45.384;20.394;2023-03-01T03:14:45;80.28;;;51.90;;
55706;SDS011;41608;45.384;20.394;2023-03-01T03:17:11;75.18;;;46.25;;
55706;SDS011;41608;45.384;20.394;2023-03-01T03:19:37;73.22;;;44.97;;
55706;SDS011;41608;45.384;20.394;2023-03-01T03:22:03;79.20;;;45.72;;
55706;SDS011;41608;45.384;20.394;2023-03-01T03:24:29;81.32;;;45.90;;
55706;SDS011;41608;45.384;20.394;2023-03-01T03:27:03;67.95;;;43.97;;
55706;SDS011;41608;45.384;20.394;2023-03-01T03:29:29;71.72;;;43.55;;
55706;SDS011;41608;45.384;20.394;2023-03-01T03:31:55;71.25;;;44.60;;
55706;SDS011;41608;45.384;20.394;2023-03-01T03:34:22;76.10;;;47.47;;
55706;SDS011;41608;45.384;20.394;2023-03-01T03:36:48;72.47;;;44.85;;
55706;SDS011;41608;45.384;20.394;2023-03-01T03:39:14;77.70;;;45.38;;
55706;SDS011;41608;45.384;20.394;2023-03-01T03:41:40;74.88;;;45.72;;
55706;SDS011;41608;45.384;20.394;2023-03-01T03:44:06;71.75;;;44.38;;
55706;SDS011;41608;45.384;20.394;2023-03-01T03:46:32;74.38;;;48.08;;
55706;SDS011;41608;45.384;20.394;2023-03-01T03:48:58;72.88;;;46.17;;
55706;SDS011;41608;45.384;20.394;2023-03-01T03:51:24;73.28;;;44.47;;
55706;SDS011;41608;45.384;20.394;2023-03-01T03:53:50;78.70;;;49.55;;
55706;SDS011;41608;45.384;20.394;2023-03-01T03:56:19;80.85;;;49.83;;
55706;SDS011;41608;45.384;20.394;2023-03-01T03:58:45;81.03;;;50.72;;
55706;SDS011;41608;45.384;20.394;2023-03-01T04:01:11;78.07;;;47.40;;
55706;SDS011;41608;45.384;20.394;2023-03-01T04:03:37;90.65;;;49.38;;
55706;SDS011;41608;45.384;20.394;2023-03-01T04:06:03;83.57;;;50.42;;
55706;SDS011;41608;45.384;20.394;2023-03-01T04:08:30;81.65;;;49.88;;
55706;SDS011;41608;45.384;20.394;2023-03-01T04:10:57;86.75;;;50.60;;
55706;SDS011;41608;45.384;20.394;2023-03-01T04:13:23;90.78;;;53.13;;
55706;SDS011;41608;45.384;20.394;2023-03-01T04:15:50;89.72;;;54.42;;
55706;SDS011;41608;45.384;20.394;2023-03-01T04:18:18;92.25;;;53.33;;
55706;SDS011;41608;45.384;20.394;2023-03-01T04:20:44;85.97;;;51.35;;
55706;SDS011;41608;45.384;20.394;2023-03-01T04:30:52;94.60;;;57.05;;
55706;SDS011;41608;45.384;20.394;2023-03-01T04:33:19;90.70;;;55.33;;
55706;SDS011;41608;45.384;20.394;2023-03-01T04:35:47;86.45;;;52.80;;
55706;SDS011;41608;45.384;20.394;2023-03-01T04:38:14;90.43;;;53.20;;
55706;SDS011;41608;45.384;20.394;2023-03-01T04:40:41;101.72;;;55.58;;
55706;SDS011;41608;45.384;20.394;2023-03-01T04:43:08;90.78;;;52.85;;
55706;SDS011;41608;45.384;20.394;2023-03-01T04:45:34;86.97;;;52.28;;
55706;SDS011;41608;45.384;20.394;2023-03-01T04:48:00;86.75;;;51.50;;
55706;SDS011;41608;45.384;20.394;2023-03-01T04:50:26;83.70;;;48.83;;
55706;SDS011;41608;45.384;20.394;2023-03-01T04:52:52;76.57;;;50.35;;
55706;SDS011;41608;45.384;20.394;2023-03-01T04:55:19;87.90;;;54.85;;
55706;SDS011;41608;45.384;20.394;2023-03-01T04:57:45;83.50;;;48.75;;
55706;SDS011;41608;45.384;20.394;2023-03-01T05:00:12;85.70;;;53.15;;
55706;SDS011;41608;45.384;20.394;2023-03-01T05:02:52;89.80;;;51.63;;
55706;SDS011;41608;45.384;20.394;2023-03-01T05:05:19;79.07;;;48.97;;
55706;SDS011;41608;45.384;20.394;2023-03-01T05:07:50;76.45;;;47.85;;
55706;SDS011;41608;45.384;20.394;2023-03-01T05:10:16;79.97;;;48.20;;
55706;SDS011;41608;45.384;20.394;2023-03-01T05:12:42;81.60;;;50.13;;
55706;SDS011;41608;45.384;20.394;2023-03-01T05:15:08;82.00;;;49.55;;
55706;SDS011;41608;45.384;20.394;2023-03-01T05:17:35;82.50;;;47.58;;
55706;SDS011;41608;45.384;20.394;2023-03-01T05:20:01;78.28;;;46.97;;
55706;SDS011;41608;45.384;20.394;2023-03-01T05:22:32;79.80;;;47.72;;
55706;SDS011;41608;45.384;20.394;2023-03-01T05:24:58;80.68;;;47.75;;
55706;SDS011;41608;45.384;20.394;2023-03-01T05:27:24;77.30;;;46.70;;
55706;SDS011;41608;45.384;20.394;2023-03-01T05:29:50;75.78;;;46.08;;
55706;SDS011;41608;45.384;20.394;2023-03-01T05:32:16;80.13;;;48.75;;
55706;SDS011;41608;45.384;20.394;2023-03-01T05:34:42;81.47;;;47.90;;
55706;SDS011;41608;45.384;20.394;2023-03-01T05:37:09;77.90;;;47.63;;
55706;SDS011;41608;45.384;20.394;2023-03-01T05:39:35;82.88;;;47.53;;
55706;SDS011;41608;45.384;20.394;2023-03-01T05:42:01;79.38;;;46.20;;
55706;SDS011;41608;45.384;20.394;2023-03-01T05:44:28;79.82;;;46.60;;
55706;SDS011;41608;45.384;20.394;2023-03-01T05:46:54;75.63;;;46.70;;
55706;SDS011;41608;45.384;20.394;2023-03-01T05:49:21;74.65;;;45.65;;
55706;SDS011;41608;45.384;20.394;2023-03-01T05:51:51;76.80;;;47.97;;
55706;SDS011;41608;45.384;20.394;2023-03-01T05:54:18;82.72;;;48.55;;
55706;SDS011;41608;45.384;20.394;2023-03-01T05:56:45;80.18;;;46.83;;
55706;SDS011;41608;45.384;20.394;2023-03-01T05:59:12;78.53;;;48.58;;
55706;SDS011;41608;45.384;20.394;2023-03-01T06:01:38;87.35;;;49.20;;
55706;SDS011;41608;45.384;20.394;2023-03-01T06:04:04;89.18;;;52.53;;
55706;SDS011;41608;45.384;20.394;2023-03-01T06:06:34;81.68;;;50.28;;
55706;SDS011;41608;45.384;20.394;2023-03-01T06:09:02;83.95;;;50.03;;
55706;SDS011;41608;45.384;20.394;2023-03-01T06:11:28;81.75;;;49.42;;
55706;SDS011;41608;45.384;20.394;2023-03-01T06:13:54;79.80;;;47.80;;
55706;SDS011;41608;45.384;20.394;2023-03-01T06:16:20;78.85;;;49.35;;
55706;SDS011;41608;45.384;20.394;2023-03-01T06:18:46;82.47;;;47.72;;
55706;SDS011;41608;45.384;20.394;2023-03-01T06:21:12;76.32;;;48.33;;
55706;SDS011;41608;45.384;20.394;2023-03-01T06:23:38;80.72;;;48.72;;
55706;SDS011;41608;45.384;20.394;2023-03-01T06:26:05;83.80;;;48.88;;
55706;SDS011;41608;45.384;20.394;2023-03-01T06:28:32;81.88;;;50.67;;
55706;SDS011;41608;45.384;20.394;2023-03-01T06:30:58;78.85;;;48.63;;
55706;SDS011;41608;45.384;20.394;2023-03-01T06:33:24;83.10;;;55.22;;
55706;SDS011;41608;45.384;20.394;2023-03-01T06:35:50;100.82;;;57.10;;
55706;SDS011;41608;45.384;20.394;2023-03-01T06:38:16;94.68;;;56.42;;
55706;SDS011;41608;45.384;20.394;2023-03-01T06:40:44;89.07;;;53.25;;
55706;SDS011;41608;45.384;20.394;2023-03-01T06:43:10;90.45;;;53.47;;
55706;SDS011;41608;45.384;20.394;2023-03-01T06:45:37;83.10;;;49.45;;
55706;SDS011;41608;45.384;20.394;2023-03-01T06:48:04;91.18;;;55.60;;
55706;SDS011;41608;45.384;20.394;2023-03-01T06:50:31;91.55;;;55.70;;
55706;SDS011;41608;45.384;20.394;2023-03-01T06:52:57;78.40;;;51.53;;
55706;SDS011;41608;45.384;20.394;2023-03-01T06:55:23;81.68;;;52.58;;
55706;SDS011;41608;45.384;20.394;2023-03-01T06:57:53;79.25;;;51.50;;
55706;SDS011;41608;45.384;20.394;2023-03-01T07:00:20;83.22;;;53.13;;
55706;SDS011;41608;45.384;20.394;2023-03-01T07:02:46;88.60;;;52.95;;
55706;SDS011;41608;45.384;20.394;2023-03-01T07:05:12;85.80;;;54.38;;
55706;SDS011;41608;45.384;20.394;2023-03-01T07:07:38;87.47;;;54.00;;
55706;SDS011;41608;45.384;20.394;2023-03-01T07:10:05;80.75;;;52.80;;
55706;SDS011;41608;45.384;20.394;2023-03-01T07:12:31;81.82;;;51.70;;
55706;SDS011;41608;45.384;20.394;2023-03-01T07:14:57;77.95;;;49.33;;
55706;SDS011;41608;45.384;20.394;2023-03-01T07:17:23;84.53;;;51.38;;
55706;SDS011;41608;45.384;20.394;2023-03-01T07:19:49;79.20;;;50.03;;
55706;SDS011;41608;45.384;20.394;2023-03-01T07:22:15;77.63;;;47.22;;
55706;SDS011;41608;45.384;20.394;2023-03-01T07:24:41;79.82;;;52.03;;
55706;SDS011;41608;45.384;20.394;2023-03-01T07:27:07;87.45;;;54.22;;
55706;SDS011;41608;45.384;20.394;2023-03-01T07:29:34;84.82;;;52.05;;
55706;SDS011;41608;45.384;20.394;2023-03-01T07:32:02;86.50;;;54.28;;
55706;SDS011;41608;45.384;20.394;2023-03-01T07:34:29;79.85;;;50.78;;
55706;SDS011;41608;45.384;20.394;2023-03-01T07:36:55;77.28;;;49.38;;
55706;SDS011;41608;45.384;20.394;2023-03-01T07:39:21;75.03;;;47.88;;
55706;SDS011;41608;45.384;20.394;2023-03-01T07:41:50;76.97;;;47.90;;
55706;SDS011;41608;45.384;20.394;2023-03-01T07:44:16;79.32;;;50.67;;
55706;SDS011;41608;45.384;20.394;2023-03-01T07:46:43;76.32;;;48.28;;
55706;SDS011;41608;45.384;20.394;2023-03-01T07:49:09;74.93;;;48.25;;
55706;SDS011;41608;45.384;20.394;2023-03-01T07:51:38;85.82;;;54.00;;
55706;SDS011;41608;45.384;20.394;2023-03-01T07:54:04;78.85;;;49.60;;
55706;SDS011;41608;45.384;20.394;2023-03-01T07:56:30;70.72;;;46.47;;
55706;SDS011;41608;45.384;20.394;2023-03-01T07:58:56;66.15;;;43.50;;
55706;SDS011;41608;45.384;20.394;2023-03-01T08:01:22;71.88;;;43.58;;
55706;SDS011;41608;45.384;20.394;2023-03-01T08:03:48;76.55;;;47.45;;
55706;SDS011;41608;45.384;20.394;2023-03-01T08:06:15;68.32;;;45.90;;
55706;SDS011;41608;45.384;20.394;2023-03-01T08:08:41;69.68;;;46.00;;
55706;SDS011;41608;45.384;20.394;2023-03-01T08:11:09;74.03;;;45.80;;
55706;SDS011;41608;45.384;20.394;2023-03-01T08:13:35;73.50;;;46.58;;
55706;SDS011;41608;45.384;20.394;2023-03-01T08:16:06;69.63;;;45.58;;
55706;SDS011;41608;45.384;20.394;2023-03-01T08:18:32;71.30;;;47.70;;
55706;SDS011;41608;45.384;20.394;2023-03-01T08:21:02;65.35;;;43.50;;
55706;SDS011;41608;45.384;20.394;2023-03-01T08:23:28;77.88;;;45.30;;
55706;SDS011;41608;45.384;20.394;2023-03-01T08:25:55;71.50;;;46.92;;
55706;SDS011;41608;45.384;20.394;2023-03-01T08:28:21;69.63;;;45.35;;
55706;SDS011;41608;45.384;20.394;2023-03-01T08:30:47;68.60;;;44.50;;
55706;SDS011;41608;45.384;20.394;2023-03-01T08:33:13;67.30;;;43.67;;
55706;SDS011;41608;45.384;20.394;2023-03-01T08:35:39;61.85;;;42.22;;
55706;SDS011;41608;45.384;20.394;2023-03-01T08:38:05;67.70;;;44.97;;
55706;SDS011;41608;45.384;20.394;2023-03-01T08:40:31;68.32;;;43.42;;
55706;SDS011;41608;45.384;20.394;2023-03-01T08:42:57;70.57;;;44.60;;
55706;SDS011;41608;45.384;20.394;2023-03-01T08:45:23;61.17;;;38.78;;
55706;SDS011;41608;45.384;20.394;2023-03-01T08:47:51;64.22;;;41.10;;
55706;SDS011;41608;45.384;20.394;2023-03-01T08:50:18;62.20;;;42.03;;
55706;SDS011;41608;45.384;20.394;2023-03-01T08:52:44;63.95;;;41.53;;
55706;SDS011;41608;45.384;20.394;2023-03-01T08:55:10;58.88;;;39.75;;
55706;SDS011;41608;45.384;20.394;2023-03-01T08:57:36;63.13;;;40.25;;
55706;SDS011;41608;45.384;20.394;2023-03-01T09:00:02;63.28;;;42.28;;
55706;SDS011;41608;45.384;20.394;2023-03-01T09:02:33;68.13;;;42.75;;
55706;SDS011;41608;45.384;20.394;2023-03-01T09:04:59;68.38;;;43.38;;
55706;SDS011;41608;45.384;20.394;2023-03-01T09:07:27;69.63;;;41.50;;
55706;SDS011;41608;45.384;20.394;2023-03-01T09:09:53;63.17;;;42.38;;
55706;SDS011;41608;45.384;20.394;2023-03-01T09:12:20;72.78;;;45.75;;
55706;SDS011;41608;45.384;20.394;2023-03-01T09:14:50;65.07;;;42.40;;
55706;SDS011;41608;45.384;20.394;2023-03-01T09:17:16;68.88;;;45.53;;
55706;SDS011;41608;45.384;20.394;2023-03-01T09:19:42;72.05;;;44.92;;
55706;SDS011;41608;45.384;20.394;2023-03-01T09:22:08;58.42;;;41.42;;
55706;SDS011;41608;45.384;20.394;2023-03-01T09:24:34;63.40;;;42.20;;
55706;SDS011;41608;45.384;20.394;2023-03-01T09:27:00;66.03;;;42.17;;
55706;SDS011;41608;45.384;20.394;2023-03-01T09:29:27;59.15;;;39.67;;
55706;SDS011;41608;45.384;20.394;2023-03-01T09:31:54;55.83;;;38.97;;
55706;SDS011;41608;45.384;20.394;2023-03-01T09:34:20;61.78;;;41.50;;
55706;SDS011;41608;45.384;20.394;2023-03-01T09:36:48;61.88;;;40.97;;
55706;SDS011;41608;45.384;20.394;2023-03-01T09:39:15;58.63;;;41.17;;
55706;SDS011;41608;45.384;20.394;2023-03-01T09:42:02;57.45;;;41.33;;
55706;SDS011;41608;45.384;20.394;2023-03-01T09:55:15;63.30;;;42.72;;
55706;SDS011;41608;45.384;20.394;2023-03-01T10:02:51;69.53;;;41.22;;
55706;SDS011;41608;45.384;20.394;2023-03-01T10:05:25;60.75;;;41.15;;
55706;SDS011;41608;45.384;20.394;2023-03-01T10:10:38;60.08;;;41.47;;
55706;SDS011;41608;45.384;20.394;2023-03-01T10:13:25;61.45;;;41.17;;
55706;SDS011;41608;45.384;20.394;2023-03-01T10:18:53;56.90;;;40.13;;
55706;SDS011;41608;45.384;20.394;2023-03-01T10:21:21;63.63;;;41.50;;
55706;SDS011;41608;45.384;20.394;2023-03-01T10:23:49;58.20;;;39.55;;
55706;SDS011;41608;45.384;20.394;2023-03-01T10:31:32;63.58;;;40.78;;
55706;SDS011;41608;45.384;20.394;2023-03-01T10:34:02;61.42;;;41.90;;
55706;SDS011;41608;45.384;20.394;2023-03-01T10:36:28;57.63;;;39.75;;
55706;SDS011;41608;45.384;20.394;2023-03-01T10:38:58;57.05;;;40.17;;
55706;SDS011;41608;45.384;20.394;2023-03-01T10:41:25;56.50;;;39.40;;
55706;SDS011;41608;45.384;20.394;2023-03-01T10:43:56;51.15;;;35.97;;
55706;SDS011;41608;45.384;20.394;2023-03-01T10:49:10;59.22;;;37.40;;
55706;SDS011;41608;45.384;20.394;2023-03-01T10:51:39;56.67;;;40.10;;
55706;SDS011;41608;45.384;20.394;2023-03-01T10:54:06;59.40;;;41.17;;
55706;SDS011;41608;45.384;20.394;2023-03-01T10:56:51;64.03;;;40.90;;
55706;SDS011;41608;45.384;20.394;2023-03-01T10:59:26;50.25;;;34.55;;
55706;SDS011;41608;45.384;20.394;2023-03-01T11:04:27;39.83;;;28.42;;
55706;SDS011;41608;45.384;20.394;2023-03-01T11:07:00;44.08;;;29.60;;
55706;SDS011;41608;45.384;20.394;2023-03-01T11:09:33;42.38;;;28.15;;
55706;SDS011;41608;45.384;20.394;2023-03-01T11:12:11;39.00;;;26.35;;
55706;SDS011;41608;45.384;20.394;2023-03-01T11:14:45;36.05;;;27.85;;
55706;SDS011;41608;45.384;20.394;2023-03-01T11:17:33;40.20;;;27.23;;
55706;SDS011;41608;45.384;20.394;2023-03-01T11:20:05;37.63;;;25.77;;
55706;SDS011;41608;45.384;20.394;2023-03-01T11:22:32;36.25;;;24.63;;
55706;SDS011;41608;45.384;20.394;2023-03-01T11:25:00;49.92;;;27.88;;
55706;SDS011;41608;45.384;20.394;2023-03-01T11:27:34;40.55;;;27.27;;
55706;SDS011;41608;45.384;20.394;2023-03-01T11:30:04;36.08;;;24.42;;
55706;SDS011;41608;45.384;20.394;2023-03-01T11:32:44;41.38;;;27.45;;
55706;SDS011;41608;45.384;20.394;2023-03-01T11:35:20;33.60;;;23.92;;
55706;SDS011;41608;45.384;20.394;2023-03-01T11:37:53;36.58;;;24.02;;
55706;SDS011;41608;45.384;20.394;2023-03-01T11:40:25;45.10;;;26.75;;
55706;SDS011;41608;45.384;20.394;2023-03-01T11:42:55;34.22;;;24.58;;
55706;SDS011;41608;45.384;20.394;2023-03-01T11:45:23;27.45;;;19.65;;
55706;SDS011;41608;45.384;20.394;2023-03-01T11:50:44;30.52;;;20.83;;
55706;SDS011;41608;45.384;20.394;2023-03-01T11:55:53;29.75;;;19.45;;
55706;SDS011;41608;45.384;20.394;2023-03-01T11:58:56;28.25;;;20.73;;
55706;SDS011;41608;45.384;20.394;2023-03-01T12:03:55;33.28;;;21.42;;
55706;SDS011;41608;45.384;20.394;2023-03-01T12:06:26;33.05;;;20.85;;
55706;SDS011;41608;45.384;20.394;2023-03-01T12:27:15;28.52;;;19.67;;
55706;SDS011;41608;45.384;20.394;2023-03-01T12:32:15;31.05;;;21.75;;
55706;SDS011;41608;45.384;20.394;2023-03-01T12:43:01;40.25;;;24.05;;
55706;SDS011;41608;45.384;20.394;2023-03-01T12:50:55;31.90;;;19.92;;
55706;SDS011;41608;45.384;20.394;2023-03-01T12:53:28;30.80;;;20.50;;
55706;SDS011;41608;45.384;20.394;2023-03-01T12:55:58;25.65;;;18.88;;
55706;SDS011;41608;45.384;20.394;2023-03-01T13:06:11;33.45;;;21.15;;
55706;SDS011;41608;45.384;20.394;2023-03-01T13:11:04;42.97;;;21.05;;
55706;SDS011;41608;45.384;20.394;2023-03-01T13:13:31;27.65;;;18.65;;
55706;SDS011;41608;45.384;20.394;2023-03-01T13:15:57;40.33;;;20.92;;
55706;SDS011;41608;45.384;20.394;2023-03-01T13:18:43;37.15;;;21.15;;
55706;SDS011;41608;45.384;20.394;2023-03-01T13:21:09;29.48;;;19.13;;
55706;SDS011;41608;45.384;20.394;2023-03-01T13:23:38;23.02;;;16.58;;
55706;SDS011;41608;45.384;20.394;2023-03-01T13:26:09;27.85;;;18.73;;
55706;SDS011;41608;45.384;20.394;2023-03-01T13:33:52;25.40;;;17.45;;
55706;SDS011;41608;45.384;20.394;2023-03-01T13:38:55;27.05;;;18.95;;
55706;SDS011;41608;45.384;20.394;2023-03-01T13:46:38;26.42;;;20.48;;
55706;SDS011;41608;45.384;20.394;2023-03-01T13:49:09;27.15;;;20.83;;
55706;SDS011;41608;45.384;20.394;2023-03-01T13:51:38;27.48;;;19.33;;
55706;SDS011;41608;45.384;20.394;2023-03-01T13:54:05;23.35;;;15.20;;
55706;SDS011;41608;45.384;20.394;2023-03-01T13:56:36;20.17;;;14.52;;
55706;SDS011;41608;45.384;20.394;2023-03-01T13:59:04;41.20;;;18.10;;
55706;SDS011;41608;45.384;20.394;2023-03-01T14:01:32;24.00;;;16.95;;
55706;SDS011;41608;45.384;20.394;2023-03-01T14:03:58;31.63;;;18.38;;
55706;SDS011;41608;45.384;20.394;2023-03-01T14:06:28;25.95;;;16.48;;
55706;SDS011;41608;45.384;20.394;2023-03-01T14:19:23;34.63;;;21.73;;
55706;SDS011;41608;45.384;20.394;2023-03-01T14:24:38;34.55;;;24.00;;
55706;SDS011;41608;45.384;20.394;2023-03-01T14:27:09;30.35;;;22.35;;
55706;SDS011;41608;45.384;20.394;2023-03-01T14:29:37;25.60;;;19.88;;
55706;SDS011;41608;45.384;20.394;2023-03-01T14:34:42;30.85;;;21.83;;
55706;SDS011;41608;45.384;20.394;2023-03-01T14:37:26;33.47;;;23.30;;
55706;SDS011;41608;45.384;20.394;2023-03-01T14:39:53;30.75;;;22.63;;
55706;SDS011;41608;45.384;20.394;2023-03-01T14:42:21;48.78;;;32.33;;
55706;SDS011;41608;45.384;20.394;2023-03-01T14:44:48;28.08;;;19.85;;
55706;SDS011;41608;45.384;20.394;2023-03-01T14:47:16;24.05;;;16.00;;
55706;SDS011;41608;45.384;20.394;2023-03-01T14:49:45;26.60;;;17.10;;
55706;SDS011;41608;45.384;20.394;2023-03-01T14:52:21;25.55;;;15.55;;
55706;SDS011;41608;45.384;20.394;2023-03-01T14:57:14;20.00;;;14.88;;
55706;SDS011;41608;45.384;20.394;2023-03-01T14:59:40;48.00;;;19.58;;
55706;SDS011;41608;45.384;20.394;2023-03-01T15:02:08;38.70;;;17.08;;
55706;SDS011;41608;45.384;20.394;2023-03-01T15:04:35;29.17;;;16.33;;
55706;SDS011;41608;45.384;20.394;2023-03-01T15:07:02;21.58;;;15.38;;
55706;SDS011;41608;45.384;20.394;2023-03-01T15:09:30;26.73;;;18.23;;
55706;SDS011;41608;45.384;20.394;2023-03-01T15:11:57;33.88;;;21.17;;
55706;SDS011;41608;45.384;20.394;2023-03-01T15:14:28;34.38;;;25.00;;
55706;SDS011;41608;45.384;20.394;2023-03-01T15:16:54;43.15;;;29.52;;
55706;SDS011;41608;45.384;20.394;2023-03-01T15:19:20;50.22;;;30.70;;
55706;SDS011;41608;45.384;20.394;2023-03-01T15:21:49;60.58;;;37.25;;
55706;SDS011;41608;45.384;20.394;2023-03-01T15:24:16;62.25;;;38.17;;
55706;SDS011;41608;45.384;20.394;2023-03-01T15:29:20;42.22;;;31.15;;
55706;SDS011;41608;45.384;20.394;2023-03-01T15:31:54;46.47;;;30.58;;
55706;SDS011;41608;45.384;20.394;2023-03-01T15:34:22;42.90;;;29.33;;
55706;SDS011;41608;45.384;20.394;2023-03-01T15:36:49;43.80;;;27.95;;
55706;SDS011;41608;45.384;20.394;2023-03-01T15:42:07;42.63;;;29.10;;
55706;SDS011;41608;45.384;20.394;2023-03-01T15:44:35;44.67;;;29.40;;
55706;SDS011;41608;45.384;20.394;2023-03-01T15:47:03;40.53;;;29.27;;
55706;SDS011;41608;45.384;20.394;2023-03-01T16:01:51;38.58;;;27.67;;
55706;SDS011;41608;45.384;20.394;2023-03-01T16:07:02;33.97;;;27.27;;
55706;SDS011;41608;45.384;20.394;2023-03-01T16:09:29;42.95;;;30.58;;
55706;SDS011;41608;45.384;20.394;2023-03-01T16:11:55;42.25;;;27.88;;
55706;SDS011;41608;45.384;20.394;2023-03-01T16:14:22;40.45;;;28.75;;
55706;SDS011;41608;45.384;20.394;2023-03-01T16:16:48;37.97;;;28.60;;
55706;SDS011;41608;45.384;20.394;2023-03-01T16:19:17;42.78;;;29.67;;
55706;SDS011;41608;45.384;20.394;2023-03-01T16:21:43;59.47;;;31.83;;
55706;SDS011;41608;45.384;20.394;2023-03-01T16:24:12;48.05;;;30.40;;
55706;SDS011;41608;45.384;20.394;2023-03-01T16:26:38;40.03;;;27.90;;
55706;SDS011;41608;45.384;20.394;2023-03-01T16:29:04;49.45;;;28.02;;
55706;SDS011;41608;45.384;20.394;2023-03-01T16:31:33;37.33;;;28.40;;
55706;SDS011;41608;45.384;20.394;2023-03-01T16:33:59;42.10;;;28.52;;
55706;SDS011;41608;45.384;20.394;2023-03-01T16:36:26;43.55;;;32.72;;
55706;SDS011;41608;45.384;20.394;2023-03-01T16:38:53;41.42;;;29.75;;
55706;SDS011;41608;45.384;20.394;2023-03-01T16:47:05;57.00;;;34.55;;
55706;SDS011;41608;45.384;20.394;2023-03-01T16:49:31;59.97;;;37.35;;
55706;SDS011;41608;45.384;20.394;2023-03-01T16:51:57;44.38;;;33.17;;